createdAt,value
2018-06-05T00:00:43.930Z,79.41
2018-06-05T00:01:53.475Z,79.5
2018-06-05T00:03:03.275Z,79.25
2018-06-05T00:04:13.344Z,79.79
2018-06-05T00:05:23.486Z,79.79
2018-06-05T00:06:33.568Z,79.79
2018-06-05T00:07:43.628Z,79.69
2018-06-05T00:08:53.702Z,79.6
2018-06-05T00:10:03.788Z,79.5
2018-06-05T00:11:13.853Z,79.69
2018-06-05T00:12:23.981Z,79.79
2018-06-05T00:13:34.042Z,79.5
2018-06-05T00:14:43.851Z,79.31
2018-06-05T00:15:53.934Z,79.31
2018-06-05T00:17:04.016Z,79.5
2018-06-05T00:18:14.088Z,79.41
2018-06-05T00:19:24.184Z,79.41
2018-06-05T00:20:34.332Z,79.5
2018-06-05T00:21:44.158Z,79.41
2018-06-05T00:22:54.266Z,79.41
2018-06-05T00:24:04.324Z,79.5
2018-06-05T00:25:14.121Z,79.5
2018-06-05T00:26:24.178Z,79.5
2018-06-05T00:27:34.258Z,79.5
2018-06-05T00:28:44.320Z,79.5
2018-06-05T00:29:54.401Z,79.79
2018-06-05T00:31:04.208Z,79.31
2018-06-05T00:32:14.036Z,79.69
2018-06-05T00:33:24.108Z,79.79
2018-06-05T00:34:34.174Z,79.5
2018-06-05T00:35:44.265Z,79.41
2018-06-05T00:36:54.347Z,79.69
2018-06-05T00:38:04.420Z,79.69
2018-06-05T00:39:14.493Z,79.5
2018-06-05T00:40:24.352Z,79.79
2018-06-05T00:41:34.440Z,79.69
2018-06-05T00:42:44.511Z,79.5
2018-06-05T00:43:54.578Z,79.79
2018-06-05T00:45:04.661Z,79.69
2018-06-05T00:46:14.746Z,79.69
2018-06-05T00:47:24.837Z,79.5
2018-06-05T00:48:34.677Z,79.69
2018-06-05T00:49:44.763Z,79.5
2018-06-05T00:50:54.842Z,79.6
2018-06-05T00:52:04.945Z,79.31
2018-06-05T00:53:14.757Z,79.79
2018-06-05T00:54:24.849Z,79.6
2018-06-05T00:55:34.928Z,79.5
2018-06-05T00:56:44.996Z,79.79
2018-06-05T00:57:55.119Z,79.69
2018-06-05T00:59:05.210Z,79.69
2018-06-05T01:00:15.282Z,79.5
2018-06-05T01:01:24.836Z,79.5
2018-06-05T01:02:34.692Z,79.41
2018-06-05T01:03:44.817Z,79.5
2018-06-05T01:04:54.880Z,79.5
2018-06-05T01:06:04.944Z,79.69
2018-06-05T01:07:14.767Z,79.5
2018-06-05T01:08:24.578Z,79.41
2018-06-05T01:09:34.411Z,79.41
2018-06-05T01:10:43.956Z,79.41
2018-06-05T01:11:54.048Z,79.5
2018-06-05T01:13:03.852Z,79.21
2018-06-05T01:14:13.395Z,79.31
2018-06-05T01:15:23.220Z,79.31
2018-06-05T01:16:33.301Z,79.02
2018-06-05T01:17:43.114Z,78.88
2018-06-05T01:18:53.182Z,79.46
2018-06-05T01:20:03.008Z,79.21
2018-06-05T01:21:12.806Z,79.17
2018-06-05T01:22:22.892Z,78.98
2018-06-05T01:23:32.955Z,79.46
2018-06-05T01:24:43.071Z,79.46
2018-06-05T01:25:53.154Z,78.88
2018-06-05T01:27:03.257Z,78.88
2018-06-05T01:28:13.331Z,79.46
2018-06-05T01:29:23.391Z,79.46
2018-06-05T01:30:33.489Z,79.46
2018-06-05T01:31:43.599Z,79.17
2018-06-05T01:32:53.721Z,78.88
2018-06-05T01:34:03.802Z,79.46
2018-06-05T01:35:13.884Z,79.56
2018-06-05T01:36:23.695Z,79.08
2018-06-05T01:37:33.525Z,79.27
2018-06-05T01:38:43.643Z,78.98
2018-06-05T01:39:53.447Z,79.27
2018-06-05T01:41:03.252Z,79.46
2018-06-05T01:42:12.789Z,79.36
2018-06-05T01:43:22.605Z,79.27
2018-06-05T01:44:32.668Z,79.36
2018-06-05T01:45:41.934Z,79.17
2018-06-05T01:46:51.475Z,79.36
2018-06-05T01:48:01.549Z,79.46
2018-06-05T01:49:11.665Z,79.46
2018-06-05T01:50:21.742Z,79.27
2018-06-05T01:51:31.809Z,79.36
2018-06-05T01:52:41.884Z,79.46
2018-06-05T01:53:51.966Z,79.46
2018-06-05T01:55:02.045Z,79.27
2018-06-05T01:56:12.127Z,79.36
2018-06-05T01:57:22.222Z,79.46
2018-06-05T01:58:32.288Z,79.36
2018-06-05T01:59:42.359Z,79.36
2018-06-05T02:00:52.436Z,79.36
2018-06-05T02:02:02.513Z,79.46
2018-06-05T02:03:12.586Z,79.46
2018-06-05T02:04:22.666Z,79.17
2018-06-05T02:05:32.734Z,79.36
2018-06-05T02:06:42.833Z,79.36
2018-06-05T02:07:52.650Z,79.36
2018-06-05T02:09:02.720Z,79.27
2018-06-05T02:10:12.796Z,79.36
2018-06-05T02:11:22.872Z,79.27
2018-06-05T02:12:32.682Z,79.56
2018-06-05T02:13:42.497Z,79.27
2018-06-05T02:14:52.299Z,79.36
2018-06-05T02:16:02.371Z,79.36
2018-06-05T02:17:11.914Z,79.36
2018-06-05T02:18:21.465Z,79.46
2018-06-05T02:19:31.270Z,79.46
2018-06-05T02:20:41.076Z,79.27
2018-06-05T02:21:51.142Z,79.46
2018-06-05T02:23:00.687Z,79.27
2018-06-05T02:24:10.766Z,79.46
2018-06-05T02:25:20.578Z,79.46
2018-06-05T02:26:30.660Z,79.36
2018-06-05T02:27:40.732Z,79.46
2018-06-05T02:28:50.801Z,79.46
2018-06-05T02:30:00.911Z,79.46
2018-06-05T02:31:10.998Z,79.36
2018-06-05T02:32:20.848Z,79.46
2018-06-05T02:33:30.935Z,79.46
2018-06-05T02:34:41.008Z,79.33
2018-06-05T02:35:51.086Z,79.27
2018-06-05T02:37:01.167Z,79.43
2018-06-05T02:38:11.259Z,79.46
2018-06-05T02:39:21.330Z,79.56
2018-06-05T02:40:31.131Z,79.46
2018-06-05T02:41:41.227Z,79.56
2018-06-05T02:42:51.081Z,79.17
2018-06-05T02:44:01.163Z,79.36
2018-06-05T02:45:11.316Z,79.46
2018-06-05T02:46:21.397Z,79.46
2018-06-05T02:47:31.470Z,79.46
2018-06-05T02:48:41.597Z,79.36
2018-06-05T02:49:51.407Z,79.46
2018-06-05T02:51:01.492Z,79.46
2018-06-05T02:52:11.319Z,79.46
2018-06-05T02:53:21.403Z,79.27
2018-06-05T02:54:31.463Z,79.27
2018-06-05T02:55:41.560Z,79.36
2018-06-05T02:56:51.664Z,79.56
2018-06-05T02:58:01.486Z,79.56
2018-06-05T02:59:11.552Z,79.36
2018-06-05T03:00:21.634Z,79.36
2018-06-05T03:01:31.439Z,79.27
2018-06-05T03:02:41.245Z,79.66
2018-06-05T03:35:00.113Z,73.38
2018-06-05T03:36:10.199Z,73.09
2018-06-05T03:37:20.281Z,74.05
2018-06-05T03:38:30.356Z,74.73
2018-06-05T03:39:40.150Z,75.49
2018-06-05T03:40:50.358Z,76.07
2018-06-05T03:42:00.521Z,76.75
2018-06-05T03:43:10.584Z,76.75
2018-06-05T03:44:20.647Z,77.61
2018-06-05T03:45:30.443Z,77.94
2018-06-05T03:46:40.258Z,78.13
2018-06-05T03:47:50.354Z,77.65
2018-06-05T03:49:00.424Z,77.75
2018-06-05T03:50:10.497Z,78.46
2018-06-05T03:51:20.561Z,78.36
2018-06-05T03:52:30.677Z,78.36
2018-06-05T03:53:40.746Z,78.4
2018-06-05T03:54:50.292Z,78.59
2018-06-05T03:56:00.381Z,78.11
2018-06-05T03:57:10.486Z,77.86
2018-06-05T03:58:20.645Z,77.76
2018-06-05T03:59:30.472Z,77.76
2018-06-05T04:00:40.560Z,77.81
2018-06-05T04:01:50.632Z,78.09
2018-06-05T04:03:00.696Z,78.09
2018-06-05T04:04:10.755Z,78.23
2018-06-05T04:05:20.575Z,78.13
2018-06-05T04:06:30.654Z,77.75
2018-06-05T04:07:40.467Z,77.59
2018-06-05T04:08:50.538Z,77.78
2018-06-05T04:10:00.672Z,77.78
2018-06-05T04:11:10.477Z,77.69
2018-06-05T04:12:20.550Z,77.88
2018-06-05T04:13:30.622Z,77.88
2018-06-05T04:14:40.689Z,77.73
2018-06-05T04:15:50.751Z,78.02
2018-06-05T04:17:00.817Z,77.83
2018-06-05T04:18:10.870Z,77.34
2018-06-05T04:19:21.036Z,75.84
2018-06-05T04:20:31.115Z,73.82
2018-06-05T04:21:41.192Z,73.54
2018-06-05T04:22:51.259Z,72.06
2018-06-05T04:24:01.325Z,71.36
2018-06-05T04:25:11.126Z,71.03
2018-06-05T04:26:20.948Z,70.1
2018-06-05T04:27:31.108Z,69.87
2018-06-05T04:28:40.891Z,69.46
2018-06-05T04:29:50.472Z,69.49
2018-06-05T04:31:00.546Z,69.92
2018-06-05T04:32:10.115Z,69.65
2018-06-05T04:33:19.972Z,69.59
2018-06-05T04:34:30.046Z,69.24
2018-06-05T04:35:39.864Z,69.43
2018-06-05T04:36:49.943Z,69.17
2018-06-05T04:38:00.029Z,69.21
2018-06-05T04:39:09.843Z,69.14
2018-06-05T04:40:19.930Z,69.08
2018-06-05T04:41:29.998Z,69.18
2018-06-05T04:42:40.104Z,69.31
2018-06-05T04:43:50.179Z,69.24
2018-06-05T04:45:00.253Z,69.64
2018-06-05T04:46:10.341Z,69.93
2018-06-05T04:47:20.410Z,69.86
2018-06-05T04:48:30.499Z,69.86
2018-06-05T04:49:40.577Z,69.9
2018-06-05T04:50:50.690Z,70.29
2018-06-05T04:52:00.770Z,70.09
2018-06-05T04:53:10.664Z,69.84
2018-06-05T04:54:20.595Z,70.23
2018-06-05T04:55:30.682Z,69.93
2018-06-05T04:56:40.807Z,70.06
2018-06-05T04:57:50.389Z,69.87
2018-06-05T04:59:00.467Z,69.18
2018-06-05T05:00:10.541Z,69.6
2018-06-05T05:01:20.611Z,69.41
2018-06-05T05:02:30.680Z,69.51
2018-06-05T05:03:40.754Z,69.45
2018-06-05T05:04:50.847Z,69.45
2018-06-05T05:06:00.921Z,69.51
2018-06-05T05:07:11.012Z,69.54
2018-06-05T05:08:21.135Z,69.64
2018-06-05T05:09:31.220Z,69.6
2018-06-05T05:10:41.304Z,69.81
2018-06-05T05:11:51.391Z,69.31
2018-06-05T05:13:01.470Z,69.35
2018-06-05T05:14:11.300Z,69.64
2018-06-05T05:15:21.361Z,69.15
2018-06-05T05:16:31.423Z,69.54
2018-06-05T05:17:41.483Z,69.05
2018-06-05T05:18:51.565Z,68.49
2018-06-05T05:20:01.656Z,69.57
2018-06-05T05:21:11.725Z,69.28
2018-06-05T05:22:21.793Z,69.09
2018-06-05T05:23:31.857Z,68.89
2018-06-05T05:24:41.929Z,68.92
2018-06-05T05:25:52.001Z,68.69
2018-06-05T05:27:02.077Z,68.89
2018-06-05T05:28:12.166Z,69.22
2018-06-05T05:29:22.002Z,69.12
2018-06-05T05:30:32.086Z,68.89
2018-06-05T05:31:41.950Z,69.02
2018-06-05T05:32:52.051Z,68.92
2018-06-05T05:34:01.885Z,68.82
2018-06-05T05:35:11.967Z,69.22
2018-06-05T05:36:22.038Z,69.22
2018-06-05T05:37:32.146Z,68.92
2018-06-05T05:38:42.221Z,69.22
2018-06-05T05:39:52.298Z,68.92
2018-06-05T05:41:02.416Z,69.22
2018-06-05T05:42:12.240Z,69.51
2018-06-05T05:43:22.385Z,68.73
2018-06-05T05:44:32.467Z,69.71
2018-06-05T05:45:42.557Z,68.49
2018-06-05T05:46:52.656Z,68.69
2018-06-05T05:48:02.477Z,69.18
2018-06-05T05:49:12.623Z,68.89
2018-06-05T05:50:22.688Z,68.89
2018-06-05T05:51:32.503Z,68.79
2018-06-05T05:52:42.593Z,68.59
2018-06-05T05:53:52.661Z,68.79
2018-06-05T05:55:02.817Z,69.35
2018-06-05T05:56:12.631Z,69.74
2018-06-05T05:57:22.723Z,69.31
2018-06-05T05:58:32.545Z,69.31
2018-06-05T05:59:42.650Z,69.57
2018-06-05T06:00:52.783Z,69.96
2018-06-05T06:02:02.864Z,69.73
2018-06-05T06:03:12.952Z,69.84
2018-06-05T06:04:23.032Z,70.03
2018-06-05T06:05:33.096Z,70.09
2018-06-05T06:06:43.202Z,70.09
2018-06-05T06:07:53.305Z,70.09
2018-06-05T06:09:03.390Z,70
2018-06-05T06:10:12.962Z,69.7
2018-06-05T06:11:22.767Z,70.48
2018-06-05T06:12:32.900Z,70.09
2018-06-05T06:13:42.989Z,70.55
2018-06-05T06:14:53.082Z,71
2018-06-05T06:16:02.900Z,70.81
2018-06-05T06:17:12.468Z,70.71
2018-06-05T06:18:22.333Z,70.9
2018-06-05T06:19:32.140Z,70.81
2018-06-05T06:20:41.712Z,71
2018-06-05T06:21:51.813Z,70.9
2018-06-05T06:23:01.902Z,70.45
2018-06-05T06:24:11.501Z,71.14
2018-06-05T06:25:21.320Z,70.55
2018-06-05T06:26:31.471Z,70.94
2018-06-05T06:27:41.557Z,70.84
2018-06-05T06:28:51.631Z,70.45
2018-06-05T06:30:01.714Z,71.11
2018-06-05T06:31:11.801Z,71.4
2018-06-05T06:32:21.875Z,71.79
2018-06-05T06:33:31.677Z,71.5
2018-06-05T06:34:41.495Z,71.75
2018-06-05T06:35:51.566Z,71.75
2018-06-05T06:37:01.642Z,72.05
2018-06-05T06:38:11.744Z,71.85
2018-06-05T06:39:21.846Z,71.85
2018-06-05T06:40:31.910Z,71.95
2018-06-05T06:41:42.052Z,72.8
2018-06-05T06:42:52.118Z,72.5
2018-06-05T06:44:02.241Z,72.7
2018-06-05T06:45:12.328Z,72.99
2018-06-05T06:46:22.418Z,73.09
2018-06-05T06:47:32.509Z,72.99
2018-06-05T06:48:42.702Z,72.8
2018-06-05T06:49:52.978Z,73.28
2018-06-05T06:51:03.055Z,72.7
2018-06-05T06:52:12.865Z,73.64
2018-06-05T06:53:22.945Z,73.35
2018-06-05T06:54:33.122Z,73.25
2018-06-05T06:55:42.953Z,73.74
2018-06-05T06:56:52.770Z,73.6
2018-06-05T06:58:02.846Z,73.9
2018-06-05T06:59:12.967Z,73.9
2018-06-05T07:00:23.049Z,73.8
2018-06-05T07:01:32.885Z,73.93
2018-06-05T07:02:43.016Z,74.19
2018-06-05T07:03:52.847Z,73.99
2018-06-05T07:05:02.973Z,73.99
2018-06-05T07:06:13.077Z,74.38
2018-06-05T07:07:23.180Z,74.19
2018-06-05T07:08:33.003Z,75.07
2018-06-05T07:09:43.082Z,74.44
2018-06-05T07:10:52.890Z,74.05
2018-06-05T07:12:02.719Z,74.9
2018-06-05T07:13:12.789Z,75
2018-06-05T07:14:22.609Z,74.61
2018-06-05T07:15:32.696Z,74.8
2018-06-05T07:16:42.769Z,74.9
2018-06-05T07:17:52.858Z,75
2018-06-05T07:19:02.940Z,74.8
2018-06-05T07:20:13.031Z,74.9
2018-06-05T07:21:23.109Z,75
2018-06-05T07:22:33.195Z,74.71
2018-06-05T07:23:43.273Z,74.71
2018-06-05T07:24:53.356Z,75
2018-06-05T07:26:03.454Z,74.8
2018-06-05T07:27:13.550Z,74.9
2018-06-05T07:28:23.353Z,74.8
2018-06-05T07:29:33.167Z,75
2018-06-05T07:30:43.261Z,74.8
2018-06-05T07:31:53.342Z,74.8
2018-06-05T07:33:03.434Z,75
2018-06-05T07:34:13.519Z,75.1
2018-06-05T07:35:23.352Z,74.51
2018-06-05T07:36:33.185Z,74.71
2018-06-05T07:37:43.277Z,74.71
2018-06-05T07:38:52.574Z,74.9
2018-06-05T07:40:02.651Z,75.04
2018-06-05T07:41:12.722Z,75.04
2018-06-05T07:42:22.299Z,75.04
2018-06-05T07:43:32.372Z,75.04
2018-06-05T07:44:42.454Z,74.84
2018-06-05T07:45:52.523Z,74.93
2018-06-05T07:47:02.345Z,74.93
2018-06-05T07:48:12.444Z,74.93
2018-06-05T07:49:22.529Z,74.93
2018-06-05T07:50:32.352Z,74.93
2018-06-05T07:51:42.442Z,75.13
2018-06-05T07:52:52.273Z,75.13
2018-06-05T07:54:02.363Z,74.84
2018-06-05T07:55:12.311Z,74.93
2018-06-05T07:56:22.195Z,75.04
2018-06-05T07:57:32.274Z,74.84
2018-06-05T07:58:42.355Z,75.17
2018-06-05T07:59:52.458Z,75.17
2018-06-05T08:01:02.560Z,75.04
2018-06-05T08:02:12.633Z,74.87
2018-06-05T08:03:22.740Z,75.07
2018-06-05T08:04:32.561Z,75.07
2018-06-05T08:05:42.659Z,75.07
2018-06-05T08:06:52.745Z,75.17
2018-06-05T08:08:02.827Z,75.17
2018-06-05T08:09:12.125Z,75.07
2018-06-05T08:10:22.197Z,74.77
2018-06-05T08:11:32.294Z,74.29
2018-06-05T08:12:42.392Z,74.22
2018-06-05T08:13:52.214Z,74.42
2018-06-05T08:15:02.302Z,74.42
2018-06-05T08:16:12.374Z,74.71
2018-06-05T08:17:22.446Z,74.46
2018-06-05T08:18:32.353Z,74.55
2018-06-05T08:19:42.170Z,74.36
2018-06-05T08:20:52.229Z,74.55
2018-06-05T08:22:01.518Z,74.55
2018-06-05T08:23:11.604Z,75.24
2018-06-05T08:24:21.428Z,74.26
2018-06-05T08:25:31.667Z,74.65
2018-06-05T08:26:41.759Z,74.75
2018-06-05T08:27:51.851Z,74.95
2018-06-05T08:29:01.480Z,74.95
2018-06-05T08:30:11.593Z,74.65
2018-06-05T08:31:21.671Z,74.75
2018-06-05T08:32:31.491Z,74.79
2018-06-05T08:33:41.815Z,74.79
2018-06-05T08:34:51.891Z,74.49
2018-06-05T08:36:01.701Z,74.3
2018-06-05T08:37:11.774Z,74.69
2018-06-05T08:38:21.853Z,74.69
2018-06-05T08:39:31.670Z,74.49
2018-06-05T08:40:41.733Z,74.3
2018-06-05T08:41:51.815Z,74.63
2018-06-05T08:43:01.927Z,74.92
2018-06-05T08:44:12.000Z,74.33
2018-06-05T08:45:21.803Z,74.63
2018-06-05T08:46:31.627Z,74.43
2018-06-05T08:47:41.725Z,74.73
2018-06-05T08:48:51.813Z,74.33
2018-06-05T08:50:01.889Z,74.43
2018-06-05T08:51:11.972Z,74.43
2018-06-05T08:52:22.038Z,74.63
2018-06-05T08:53:31.848Z,74.24
2018-06-05T08:54:41.926Z,74.43
2018-06-05T08:55:52.008Z,74.73
2018-06-05T08:57:02.096Z,74.57
2018-06-05T08:58:12.167Z,74.66
2018-06-05T08:59:21.961Z,74.57
2018-06-05T09:00:31.550Z,74.53
2018-06-05T09:01:41.097Z,75.12
2018-06-05T09:02:51.202Z,75.32
2018-06-05T09:04:01.045Z,74.92
2018-06-05T09:05:11.180Z,74.37
2018-06-05T09:06:21.430Z,74.96
2018-06-05T09:07:31.524Z,74.96
2018-06-05T09:08:41.620Z,74.66
2018-06-05T09:09:51.709Z,74.76
2018-06-05T09:11:01.895Z,75.22
2018-06-05T09:12:11.979Z,75.02
2018-06-05T09:13:22.068Z,74.63
2018-06-05T09:14:32.145Z,74.82
2018-06-05T09:15:42.249Z,74.66
2018-06-05T09:16:52.333Z,74.57
2018-06-05T09:18:02.176Z,74.76
2018-06-05T09:19:12.014Z,74.57
2018-06-05T09:20:22.162Z,74.76
2018-06-05T09:21:32.109Z,74.86
2018-06-05T09:22:42.185Z,75.05
2018-06-05T09:23:52.283Z,75.05
2018-06-05T09:25:02.371Z,74.96
2018-06-05T09:26:12.449Z,74.96
2018-06-05T09:27:22.568Z,75.05
2018-06-05T09:28:32.665Z,75.09
2018-06-05T09:29:42.753Z,75.19
2018-06-05T09:30:52.842Z,75.19
2018-06-05T09:32:02.938Z,74.31
2018-06-05T09:33:13.019Z,75.13
2018-06-05T09:34:23.198Z,74.41
2018-06-05T09:35:33.506Z,75.13
2018-06-05T09:36:43.586Z,74.44
2018-06-05T09:37:53.403Z,74.44
2018-06-05T09:39:03.492Z,74.44
2018-06-05T09:40:13.589Z,75.13
2018-06-05T09:41:23.674Z,75.13
2018-06-05T09:42:33.815Z,74.25
2018-06-05T09:43:43.652Z,74.97
2018-06-05T09:44:53.758Z,75.33
2018-06-05T09:46:03.838Z,75.37
2018-06-05T09:47:13.904Z,74.54
2018-06-05T09:48:23.745Z,74.48
2018-06-05T09:49:33.292Z,75.16
2018-06-05T09:50:43.373Z,75.16
2018-06-05T09:51:53.454Z,74.97
2018-06-05T09:53:03.431Z,74.58
2018-06-05T09:54:13.521Z,74.38
2018-06-05T09:55:23.346Z,74.48
2018-06-05T09:56:33.187Z,74.48
2018-06-05T09:57:43.357Z,75.2
2018-06-05T09:58:54.136Z,75.01
2018-06-05T10:00:03.979Z,74.58
2018-06-05T10:01:13.798Z,74.87
2018-06-05T10:02:23.101Z,74.58
2018-06-05T10:03:32.924Z,74.77
2018-06-05T10:04:42.993Z,74.77
2018-06-05T10:05:53.070Z,75.07
2018-06-05T10:07:02.875Z,74.97
2018-06-05T10:08:12.709Z,74.87
2018-06-05T10:09:22.787Z,75.16
2018-06-05T10:10:32.594Z,75.07
2018-06-05T10:11:42.673Z,74.62
2018-06-05T10:12:52.510Z,74.81
2018-06-05T10:14:02.590Z,74.35
2018-06-05T10:15:12.566Z,74.16
2018-06-05T10:16:22.641Z,73.96
2018-06-05T10:17:32.469Z,74.06
2018-06-05T10:18:42.556Z,73.61
2018-06-05T10:19:52.639Z,73.71
2018-06-05T10:21:02.729Z,73.8
2018-06-05T10:22:12.816Z,73.8
2018-06-05T10:23:22.888Z,74.04
2018-06-05T10:24:32.720Z,73.74
2018-06-05T10:25:42.542Z,73.84
2018-06-05T10:26:52.686Z,73.74
2018-06-05T10:28:02.515Z,73.74
2018-06-05T10:29:12.341Z,73.58
2018-06-05T10:30:22.162Z,73.09
2018-06-05T10:31:32.352Z,72.99
2018-06-05T10:32:42.429Z,73.58
2018-06-05T10:33:52.260Z,74.11
2018-06-05T10:35:02.363Z,73.88
2018-06-05T10:36:12.211Z,74.11
2018-06-05T10:37:22.036Z,74.17
2018-06-05T10:38:31.859Z,73.77
2018-06-05T10:39:41.941Z,73.81
2018-06-05T10:40:51.778Z,73.46
2018-06-05T10:42:01.852Z,73.29
2018-06-05T10:43:11.692Z,72.54
2018-06-05T10:44:21.512Z,72.87
2018-06-05T10:45:31.340Z,72.47
2018-06-05T10:46:41.515Z,72.31
2018-06-05T10:47:51.855Z,72.61
2018-06-05T10:49:02.246Z,72.51
2018-06-05T10:50:12.331Z,72.64
2018-06-05T10:51:22.420Z,72.71
2018-06-05T10:52:32.234Z,72.34
2018-06-05T10:53:42.418Z,72.84
2018-06-05T10:54:52.670Z,72.19
2018-06-05T10:56:02.761Z,72.09
2018-06-05T10:57:12.843Z,72.42
2018-06-05T10:58:22.659Z,72.06
2018-06-05T10:59:32.466Z,72.16
2018-06-05T11:00:42.603Z,72.25
2018-06-05T11:01:52.697Z,72.42
2018-06-05T11:03:02.818Z,73.18
2018-06-05T11:04:12.933Z,72.74
2018-06-05T11:05:23.005Z,72.38
2018-06-05T11:06:33.090Z,72.12
2018-06-05T11:07:42.921Z,71.96
2018-06-05T11:08:52.990Z,71.89
2018-06-05T11:10:03.090Z,71
2018-06-05T11:11:13.186Z,71.3
2018-06-05T11:12:23.016Z,71.11
2018-06-05T11:13:32.863Z,71.44
2018-06-05T11:14:42.942Z,71.34
2018-06-05T11:15:53.040Z,71.47
2018-06-05T11:17:03.127Z,71.37
2018-06-05T11:18:13.007Z,71.47
2018-06-05T11:19:23.260Z,71.47
2018-06-05T11:20:33.353Z,71.8
2018-06-05T11:21:43.199Z,71.6
2018-06-05T11:22:53.264Z,71.6
2018-06-05T11:24:03.346Z,71.44
2018-06-05T11:25:13.470Z,71.04
2018-06-05T11:26:23.555Z,70.65
2018-06-05T11:27:33.673Z,70.94
2018-06-05T11:28:43.754Z,70.65
2018-06-05T11:29:53.577Z,70.88
2018-06-05T11:31:03.732Z,71.44
2018-06-05T11:32:13.834Z,71.9
2018-06-05T11:33:23.921Z,72.56
2018-06-05T11:34:34.004Z,72.03
2018-06-05T11:35:44.152Z,72.59
2018-06-05T11:36:54.258Z,72.98
2018-06-05T11:38:04.176Z,72.88
2018-06-05T11:39:14.278Z,72.29
2018-06-05T11:40:24.370Z,71.99
2018-06-05T11:41:34.458Z,72.39
2018-06-05T11:42:44.623Z,72.49
2018-06-05T11:43:54.719Z,71.73
2018-06-05T11:45:04.825Z,71.08
2018-06-05T11:46:14.930Z,70.05
2018-06-05T11:47:24.764Z,70.18
2018-06-05T11:48:34.585Z,70.12
2018-06-05T11:49:44.681Z,70.51
2018-06-05T11:50:54.758Z,70.88
2018-06-05T11:52:04.594Z,71.83
2018-06-05T11:53:14.712Z,71.2
2018-06-05T11:54:24.844Z,71.8
2018-06-05T11:55:34.976Z,72.16
2018-06-05T11:56:45.083Z,72.22
2018-06-05T11:57:55.186Z,72.03
2018-06-05T11:59:05.516Z,72.19
2018-06-05T12:00:15.608Z,72.19
2018-06-05T12:01:25.428Z,72.16
2018-06-05T12:02:35.519Z,71.86
2018-06-05T12:03:44.818Z,72.16
2018-06-05T12:04:54.912Z,71.96
2018-06-05T12:06:04.984Z,72.12
2018-06-05T12:07:15.074Z,72.12
2018-06-05T12:08:25.173Z,72.32
2018-06-05T12:09:35.272Z,72.22
2018-06-05T12:10:45.375Z,72.12
2018-06-05T12:11:55.504Z,72.22
2018-06-05T12:13:05.337Z,72.12
2018-06-05T12:14:15.433Z,72.09
2018-06-05T12:15:25.527Z,71.79
2018-06-05T12:16:35.650Z,72.19
2018-06-05T12:17:45.810Z,72.34
2018-06-05T12:18:55.723Z,72.64
2018-06-05T12:20:05.840Z,72.34
2018-06-05T12:21:15.930Z,72.31
2018-06-05T12:22:26.004Z,72.51
2018-06-05T12:23:36.101Z,72.41
2018-06-05T12:24:46.196Z,72.41
2018-06-05T12:25:56.279Z,72.51
2018-06-05T12:27:06.351Z,72.41
2018-06-05T12:28:16.450Z,72.31
2018-06-05T12:29:26.517Z,73.07
2018-06-05T12:30:36.590Z,73.16
2018-06-05T12:31:46.708Z,73.07
2018-06-05T12:32:56.795Z,73.07
2018-06-05T12:34:06.622Z,73.16
2018-06-05T12:35:16.760Z,72.97
2018-06-05T12:36:26.838Z,73.16
2018-06-05T12:37:36.947Z,73.36
2018-06-05T12:38:47.016Z,72.93
2018-06-05T12:39:57.089Z,73.13
2018-06-05T12:41:07.186Z,73.33
2018-06-05T12:42:17.267Z,73.13
2018-06-05T12:43:27.345Z,73.13
2018-06-05T12:44:37.436Z,73.43
2018-06-05T12:45:47.532Z,72.28
2018-06-05T12:46:57.368Z,72.58
2018-06-05T12:48:06.942Z,72.38
2018-06-05T12:49:16.745Z,72.67
2018-06-05T12:50:26.584Z,72.38
2018-06-05T12:51:36.443Z,72.47
2018-06-05T12:52:46.743Z,72.47
2018-06-05T12:53:56.587Z,72.38
2018-06-05T12:55:06.153Z,72.67
2018-06-05T12:56:16.248Z,72.11
2018-06-05T12:57:26.082Z,71.92
2018-06-05T12:58:36.213Z,71.46
2018-06-05T12:59:46.303Z,71.06
2018-06-05T13:00:56.409Z,71.39
2018-06-05T13:02:06.484Z,71.03
2018-06-05T13:03:16.289Z,70.67
2018-06-05T13:04:26.436Z,70.97
2018-06-05T13:05:36.554Z,71.2
2018-06-05T13:06:46.872Z,71.47
2018-06-05T13:07:56.947Z,72.32
2018-06-05T13:09:06.519Z,72.38
2018-06-05T13:10:16.360Z,72.94
2018-06-05T13:11:26.235Z,72.34
2018-06-05T13:12:36.344Z,72.19
2018-06-05T13:13:46.183Z,72.38
2018-06-05T13:14:56.004Z,72.19
2018-06-05T13:16:06.099Z,71.98
2018-06-05T13:17:15.938Z,71.79
2018-06-05T13:18:26.205Z,72.02
2018-06-05T13:19:36.311Z,72.12
2018-06-05T13:20:46.396Z,72.38
2018-06-05T13:21:56.533Z,72.09
2018-06-05T13:23:06.816Z,72.02
2018-06-05T13:24:17.265Z,71.56
2018-06-05T13:25:27.362Z,71.62
2018-06-05T13:26:37.197Z,71.92
2018-06-05T13:27:47.290Z,72.22
2018-06-05T13:28:57.112Z,72.09
2018-06-05T13:30:06.937Z,71.98
2018-06-05T13:31:17.035Z,72.64
2018-06-05T13:32:27.138Z,72.84
2018-06-05T13:33:37.236Z,72.15
2018-06-05T13:34:46.795Z,71.86
2018-06-05T13:35:56.879Z,72.15
2018-06-05T13:37:06.949Z,72.02
2018-06-05T13:38:16.787Z,72.31
2018-06-05T13:39:26.662Z,72.77
2018-06-05T13:40:36.746Z,72.87
2018-06-05T13:41:46.921Z,72.64
2018-06-05T13:42:57.102Z,73.23
2018-06-05T13:44:07.319Z,73.29
2018-06-05T13:45:17.441Z,73.29
2018-06-05T13:46:27.265Z,72.8
2018-06-05T13:47:37.352Z,72.41
2018-06-05T13:48:47.187Z,72.11
2018-06-05T13:49:57.253Z,72.05
2018-06-05T13:51:07.073Z,71.85
2018-06-05T13:52:17.192Z,71.85
2018-06-05T13:53:27.421Z,72.05
2018-06-05T13:54:37.525Z,72.05
2018-06-05T13:55:47.382Z,72.14
2018-06-05T13:56:57.544Z,72.05
2018-06-05T13:58:07.379Z,72.24
2018-06-05T13:59:17.240Z,72.14
2018-06-05T14:00:27.359Z,71.65
2018-06-05T14:01:37.191Z,71.75
2018-06-05T14:02:47.283Z,71.85
2018-06-05T14:03:57.093Z,71.55
2018-06-05T14:05:07.191Z,72.24
2018-06-05T14:06:17.275Z,71.95
2018-06-05T14:07:27.112Z,72.21
2018-06-05T14:08:37.244Z,72.41
2018-06-05T14:09:47.329Z,72.67
2018-06-05T14:10:57.181Z,72.47
2018-06-05T14:12:07.291Z,72.56
2018-06-05T14:13:17.123Z,72.47
2018-06-05T14:14:27.254Z,73.35
2018-06-05T14:15:37.352Z,72.83
2018-06-05T14:16:47.456Z,73.22
2018-06-05T14:17:57.022Z,73.38
2018-06-05T14:19:07.153Z,73.48
2018-06-05T14:20:17.245Z,73.38
2018-06-05T14:21:27.070Z,72.99
2018-06-05T14:22:37.168Z,73.64
2018-06-05T14:23:46.961Z,73.84
2018-06-05T14:24:56.797Z,74.33
2018-06-05T14:26:06.901Z,73.74
2018-06-05T14:27:17.021Z,73.5
2018-06-05T14:28:27.120Z,73.64
2018-06-05T14:29:37.223Z,74.19
2018-06-05T14:30:47.046Z,73.9
2018-06-05T14:31:56.618Z,74.19
2018-06-05T14:33:06.452Z,73.86
2018-06-05T14:34:16.541Z,74.26
2018-06-05T14:35:26.731Z,74.06
2018-06-05T14:36:37.054Z,74.55
2018-06-05T14:37:47.140Z,74.55
2018-06-05T14:38:57.241Z,74.22
2018-06-05T14:40:07.077Z,74.32
2018-06-05T14:41:17.190Z,74.42
2018-06-05T14:42:27.029Z,74.52
2018-06-05T14:43:36.883Z,74.52
2018-06-05T14:44:46.963Z,74.55
2018-06-05T14:45:56.910Z,73.86
2018-06-05T14:47:07.058Z,73.86
2018-06-05T14:48:17.581Z,74.16
2018-06-05T14:49:28.342Z,74.39
2018-06-05T14:50:38.934Z,74.26
2018-06-05T14:51:49.210Z,74.1
2018-06-05T14:53:00.206Z,74.1
2018-06-05T14:54:10.631Z,73.9
2018-06-05T14:55:21.455Z,73.74
2018-06-05T14:56:32.030Z,73.9
2018-06-05T14:57:42.788Z,73.71
2018-06-05T14:58:53.904Z,74.29
2018-06-05T15:00:04.839Z,74.19
2018-06-05T15:01:16.273Z,74.19
2018-06-05T15:02:29.501Z,74
2018-06-05T15:03:41.967Z,73.9
2018-06-05T15:04:55.615Z,74
2018-06-05T15:06:06.913Z,73.54
2018-06-05T15:07:19.158Z,73.8
2018-06-05T15:08:32.143Z,74.13
2018-06-05T15:09:44.859Z,73.71
2018-06-05T15:10:57.273Z,73.9
2018-06-05T15:12:13.076Z,73.9
2018-06-05T15:13:27.260Z,73.5
2018-06-05T15:14:41.765Z,74.13
2018-06-05T15:15:54.477Z,74.69
2018-06-05T15:17:08.410Z,74.19
2018-06-05T15:18:23.793Z,74.39
2018-06-05T15:19:37.002Z,74.55
2018-06-05T15:20:50.440Z,74.65
2018-06-05T15:22:04.003Z,74.75
2018-06-05T15:23:15.389Z,74.85
2018-06-05T15:24:27.379Z,74.46
2018-06-05T15:25:40.078Z,74.85
2018-06-05T15:26:50.200Z,74.85
2018-06-05T15:28:00.338Z,74.85
2018-06-05T15:29:10.437Z,74.85
2018-06-05T15:30:20.546Z,74.75
2018-06-05T15:31:30.374Z,74.75
2018-06-05T15:32:40.449Z,74.26
2018-06-05T15:33:50.591Z,74.46
2018-06-05T15:35:01.011Z,74.06
2018-06-05T15:36:10.833Z,73.96
2018-06-05T15:37:20.950Z,74.55
2018-06-05T15:38:31.081Z,74.55